sensor_id;sensor_type;location;lat;lon;timestamp;P1;durP1;ratioP1;P2;durP2;ratioP2
15958;SDS011;8078;47.822;9.402;2022-08-19T00:01:33;21.98;;;16.83;;
15958;SDS011;8078;47.822;9.402;2022-08-19T00:04:02;24.67;;;18.70;;
15958;SDS011;8078;47.822;9.402;2022-08-19T00:06:31;24.63;;;18.08;;
15958;SDS011;8078;47.822;9.402;2022-08-19T00:08:57;29.15;;;20.17;;
15958;SDS011;8078;47.822;9.402;2022-08-19T00:11:25;30.13;;;21.45;;
15958;SDS011;8078;47.822;9.402;2022-08-19T00:13:52;34.28;;;22.40;;
15958;SDS011;8078;47.822;9.402;2022-08-19T00:16:21;33.83;;;25.00;;
15958;SDS011;8078;47.822;9.402;2022-08-19T00:18:48;32.08;;;23.05;;
15958;SDS011;8078;47.822;9.402;2022-08-19T00:21:14;31.38;;;23.48;;
15958;SDS011;8078;47.822;9.402;2022-08-19T00:23:40;34.78;;;23.90;;
15958;SDS011;8078;47.822;9.402;2022-08-19T00:26:08;32.28;;;23.45;;
15958;SDS011;8078;47.822;9.402;2022-08-19T00:28:35;37.28;;;24.83;;
15958;SDS011;8078;47.822;9.402;2022-08-19T00:31:01;41.25;;;24.70;;
15958;SDS011;8078;47.822;9.402;2022-08-19T00:33:31;35.33;;;23.65;;
15958;SDS011;8078;47.822;9.402;2022-08-19T00:35:57;37.83;;;25.33;;
15958;SDS011;8078;47.822;9.402;2022-08-19T00:38:29;38.60;;;25.63;;
15958;SDS011;8078;47.822;9.402;2022-08-19T00:40:55;39.80;;;25.10;;
15958;SDS011;8078;47.822;9.402;2022-08-19T00:43:22;37.08;;;23.50;;
15958;SDS011;8078;47.822;9.402;2022-08-19T00:45:50;35.08;;;24.45;;
15958;SDS011;8078;47.822;9.402;2022-08-19T00:48:17;37.20;;;25.75;;
15958;SDS011;8078;47.822;9.402;2022-08-19T00:50:44;39.67;;;25.52;;
15958;SDS011;8078;47.822;9.402;2022-08-19T00:53:10;45.50;;;28.55;;
15958;SDS011;8078;47.822;9.402;2022-08-19T00:55:39;64.75;;;28.55;;
15958;SDS011;8078;47.822;9.402;2022-08-19T00:58:08;44.35;;;27.30;;
15958;SDS011;8078;47.822;9.402;2022-08-19T01:00:37;47.38;;;28.70;;
15958;SDS011;8078;47.822;9.402;2022-08-19T01:03:04;40.97;;;27.23;;
15958;SDS011;8078;47.822;9.402;2022-08-19T01:05:31;50.90;;;28.10;;
15958;SDS011;8078;47.822;9.402;2022-08-19T01:07:59;53.58;;;29.35;;
15958;SDS011;8078;47.822;9.402;2022-08-19T01:10:27;157.60;;;30.75;;
15958;SDS011;8078;47.822;9.402;2022-08-19T01:12:55;133.52;;;32.38;;
15958;SDS011;8078;47.822;9.402;2022-08-19T01:15:26;152.93;;;30.73;;
15958;SDS011;8078;47.822;9.402;2022-08-19T01:18:06;385.85;;;37.10;;
15958;SDS011;8078;47.822;9.402;2022-08-19T01:20:34;311.63;;;33.28;;
15958;SDS011;8078;47.822;9.402;2022-08-19T01:23:00;521.92;;;40.42;;
15958;SDS011;8078;47.822;9.402;2022-08-19T01:25:34;452.75;;;36.95;;
15958;SDS011;8078;47.822;9.402;2022-08-19T01:28:06;373.90;;;34.22;;
15958;SDS011;8078;47.822;9.402;2022-08-19T01:30:33;196.35;;;29.30;;
15958;SDS011;8078;47.822;9.402;2022-08-19T01:33:00;130.23;;;29.75;;
15958;SDS011;8078;47.822;9.402;2022-08-19T01:35:27;197.50;;;31.35;;
15958;SDS011;8078;47.822;9.402;2022-08-19T01:37:55;145.13;;;30.90;;
15958;SDS011;8078;47.822;9.402;2022-08-19T01:40:25;97.00;;;29.25;;
15958;SDS011;8078;47.822;9.402;2022-08-19T01:42:54;44.67;;;28.70;;
15958;SDS011;8078;47.822;9.402;2022-08-19T01:45:21;54.40;;;27.95;;
15958;SDS011;8078;47.822;9.402;2022-08-19T01:47:48;44.20;;;28.00;;
15958;SDS011;8078;47.822;9.402;2022-08-19T01:50:13;46.20;;;26.27;;
15958;SDS011;8078;47.822;9.402;2022-08-19T01:52:40;39.28;;;26.63;;
15958;SDS011;8078;47.822;9.402;2022-08-19T01:55:08;50.05;;;27.77;;
15958;SDS011;8078;47.822;9.402;2022-08-19T01:57:37;40.35;;;26.83;;
15958;SDS011;8078;47.822;9.402;2022-08-19T02:00:05;36.83;;;25.60;;
15958;SDS011;8078;47.822;9.402;2022-08-19T02:02:33;39.75;;;26.25;;
15958;SDS011;8078;47.822;9.402;2022-08-19T02:04:59;40.65;;;27.08;;
15958;SDS011;8078;47.822;9.402;2022-08-19T02:07:24;36.42;;;26.23;;
15958;SDS011;8078;47.822;9.402;2022-08-19T02:09:50;35.65;;;25.20;;
15958;SDS011;8078;47.822;9.402;2022-08-19T02:12:16;39.92;;;24.92;;
15958;SDS011;8078;47.822;9.402;2022-08-19T02:14:41;43.05;;;26.55;;
15958;SDS011;8078;47.822;9.402;2022-08-19T02:17:07;40.20;;;26.02;;
15958;SDS011;8078;47.822;9.402;2022-08-19T02:19:33;40.90;;;27.40;;
15958;SDS011;8078;47.822;9.402;2022-08-19T02:21:59;39.88;;;26.52;;
15958;SDS011;8078;47.822;9.402;2022-08-19T02:24:25;46.40;;;29.38;;
15958;SDS011;8078;47.822;9.402;2022-08-19T02:26:52;47.53;;;32.85;;
15958;SDS011;8078;47.822;9.402;2022-08-19T02:29:18;42.40;;;29.00;;
15958;SDS011;8078;47.822;9.402;2022-08-19T02:31:43;49.58;;;27.80;;
15958;SDS011;8078;47.822;9.402;2022-08-19T02:34:09;41.92;;;27.42;;
15958;SDS011;8078;47.822;9.402;2022-08-19T02:36:35;45.45;;;30.52;;
15958;SDS011;8078;47.822;9.402;2022-08-19T02:39:00;53.53;;;32.40;;
15958;SDS011;8078;47.822;9.402;2022-08-19T02:41:27;53.00;;;33.08;;
15958;SDS011;8078;47.822;9.402;2022-08-19T02:43:56;56.58;;;31.50;;
15958;SDS011;8078;47.822;9.402;2022-08-19T02:46:24;53.65;;;31.98;;
15958;SDS011;8078;47.822;9.402;2022-08-19T02:48:53;53.70;;;30.85;;
15958;SDS011;8078;47.822;9.402;2022-08-19T02:51:23;50.67;;;31.27;;
15958;SDS011;8078;47.822;9.402;2022-08-19T02:53:53;49.05;;;30.20;;
15958;SDS011;8078;47.822;9.402;2022-08-19T02:56:21;50.65;;;31.20;;
15958;SDS011;8078;47.822;9.402;2022-08-19T02:58:47;58.28;;;31.55;;
15958;SDS011;8078;47.822;9.402;2022-08-19T03:01:20;54.75;;;31.00;;
15958;SDS011;8078;47.822;9.402;2022-08-19T03:03:49;56.95;;;31.42;;
15958;SDS011;8078;47.822;9.402;2022-08-19T03:06:16;50.25;;;29.42;;
15958;SDS011;8078;47.822;9.402;2022-08-19T03:08:43;55.92;;;32.15;;
15958;SDS011;8078;47.822;9.402;2022-08-19T03:11:14;49.75;;;30.40;;
15958;SDS011;8078;47.822;9.402;2022-08-19T03:13:45;55.17;;;29.50;;
15958;SDS011;8078;47.822;9.402;2022-08-19T03:16:14;57.00;;;29.88;;
15958;SDS011;8078;47.822;9.402;2022-08-19T03:18:41;54.95;;;31.30;;
15958;SDS011;8078;47.822;9.402;2022-08-19T03:21:07;52.67;;;29.67;;
15958;SDS011;8078;47.822;9.402;2022-08-19T03:23:33;55.85;;;31.90;;
15958;SDS011;8078;47.822;9.402;2022-08-19T03:25:58;52.38;;;30.63;;
15958;SDS011;8078;47.822;9.402;2022-08-19T03:28:28;48.65;;;29.58;;
15958;SDS011;8078;47.822;9.402;2022-08-19T03:30:55;54.95;;;30.65;;
15958;SDS011;8078;47.822;9.402;2022-08-19T03:33:23;50.70;;;29.25;;
15958;SDS011;8078;47.822;9.402;2022-08-19T03:35:59;45.35;;;28.60;;
15958;SDS011;8078;47.822;9.402;2022-08-19T03:38:47;43.90;;;27.50;;
15958;SDS011;8078;47.822;9.402;2022-08-19T03:41:16;47.00;;;28.48;;
15958;SDS011;8078;47.822;9.402;2022-08-19T03:43:49;45.80;;;28.23;;
15958;SDS011;8078;47.822;9.402;2022-08-19T03:46:16;42.08;;;27.85;;
15958;SDS011;8078;47.822;9.402;2022-08-19T03:48:45;46.35;;;28.05;;
15958;SDS011;8078;47.822;9.402;2022-08-19T03:51:19;49.53;;;29.10;;
15958;SDS011;8078;47.822;9.402;2022-08-19T03:53:59;58.55;;;30.40;;
15958;SDS011;8078;47.822;9.402;2022-08-19T03:56:27;57.60;;;32.03;;
15958;SDS011;8078;47.822;9.402;2022-08-19T03:58:54;66.78;;;34.75;;
15958;SDS011;8078;47.822;9.402;2022-08-19T04:01:22;73.10;;;34.05;;
15958;SDS011;8078;47.822;9.402;2022-08-19T04:03:51;74.50;;;35.70;;
15958;SDS011;8078;47.822;9.402;2022-08-19T04:08:51;75.05;;;35.55;;
15958;SDS011;8078;47.822;9.402;2022-08-19T04:11:19;75.95;;;35.95;;
15958;SDS011;8078;47.822;9.402;2022-08-19T04:13:47;89.97;;;36.40;;
15958;SDS011;8078;47.822;9.402;2022-08-19T04:16:13;64.05;;;34.45;;
15958;SDS011;8078;47.822;9.402;2022-08-19T04:18:40;86.38;;;34.97;;
15958;SDS011;8078;47.822;9.402;2022-08-19T04:21:06;61.85;;;32.35;;
15958;SDS011;8078;47.822;9.402;2022-08-19T04:23:33;68.55;;;34.33;;
15958;SDS011;8078;47.822;9.402;2022-08-19T04:26:01;61.83;;;31.65;;
15958;SDS011;8078;47.822;9.402;2022-08-19T04:28:27;54.95;;;30.20;;
15958;SDS011;8078;47.822;9.402;2022-08-19T04:30:53;51.92;;;30.30;;
15958;SDS011;8078;47.822;9.402;2022-08-19T04:33:21;50.15;;;30.05;;
15958;SDS011;8078;47.822;9.402;2022-08-19T04:35:49;49.83;;;29.77;;
15958;SDS011;8078;47.822;9.402;2022-08-19T04:38:17;51.58;;;30.13;;
15958;SDS011;8078;47.822;9.402;2022-08-19T04:40:48;45.53;;;29.55;;
15958;SDS011;8078;47.822;9.402;2022-08-19T04:43:34;46.65;;;28.33;;
15958;SDS011;8078;47.822;9.402;2022-08-19T04:46:05;48.80;;;28.77;;
15958;SDS011;8078;47.822;9.402;2022-08-19T04:48:35;49.38;;;28.83;;
15958;SDS011;8078;47.822;9.402;2022-08-19T04:51:05;46.70;;;28.38;;
15958;SDS011;8078;47.822;9.402;2022-08-19T04:53:33;48.22;;;28.30;;
15958;SDS011;8078;47.822;9.402;2022-08-19T04:56:04;44.17;;;28.13;;
15958;SDS011;8078;47.822;9.402;2022-08-19T04:58:35;44.10;;;27.58;;
15958;SDS011;8078;47.822;9.402;2022-08-19T05:01:02;44.47;;;27.70;;
15958;SDS011;8078;47.822;9.402;2022-08-19T05:03:28;41.35;;;27.45;;
15958;SDS011;8078;47.822;9.402;2022-08-19T05:05:57;44.50;;;27.17;;
15958;SDS011;8078;47.822;9.402;2022-08-19T05:08:23;42.47;;;26.23;;
15958;SDS011;8078;47.822;9.402;2022-08-19T05:10:49;42.45;;;27.48;;
15958;SDS011;8078;47.822;9.402;2022-08-19T05:13:16;47.05;;;29.27;;
15958;SDS011;8078;47.822;9.402;2022-08-19T05:15:43;45.42;;;28.00;;
15958;SDS011;8078;47.822;9.402;2022-08-19T05:18:09;44.30;;;27.85;;
15958;SDS011;8078;47.822;9.402;2022-08-19T05:20:54;42.30;;;27.13;;
15958;SDS011;8078;47.822;9.402;2022-08-19T05:23:38;45.13;;;27.85;;
15958;SDS011;8078;47.822;9.402;2022-08-19T05:26:04;46.70;;;27.67;;
15958;SDS011;8078;47.822;9.402;2022-08-19T05:28:30;45.00;;;28.50;;
15958;SDS011;8078;47.822;9.402;2022-08-19T05:30:55;45.63;;;29.25;;
15958;SDS011;8078;47.822;9.402;2022-08-19T05:33:22;49.47;;;29.98;;
15958;SDS011;8078;47.822;9.402;2022-08-19T05:35:49;47.50;;;29.70;;
15958;SDS011;8078;47.822;9.402;2022-08-19T05:38:18;46.28;;;29.75;;
15958;SDS011;8078;47.822;9.402;2022-08-19T05:40:44;45.35;;;31.38;;
15958;SDS011;8078;47.822;9.402;2022-08-19T05:43:13;46.88;;;31.80;;
15958;SDS011;8078;47.822;9.402;2022-08-19T05:45:41;46.60;;;31.27;;
15958;SDS011;8078;47.822;9.402;2022-08-19T05:48:07;51.08;;;31.88;;
15958;SDS011;8078;47.822;9.402;2022-08-19T05:50:36;49.53;;;30.45;;
15958;SDS011;8078;47.822;9.402;2022-08-19T05:53:03;54.58;;;32.38;;
15958;SDS011;8078;47.822;9.402;2022-08-19T05:55:29;52.42;;;31.80;;
15958;SDS011;8078;47.822;9.402;2022-08-19T05:57:55;51.45;;;31.40;;
15958;SDS011;8078;47.822;9.402;2022-08-19T06:00:20;53.28;;;32.33;;
15958;SDS011;8078;47.822;9.402;2022-08-19T06:02:46;54.80;;;30.92;;
15958;SDS011;8078;47.822;9.402;2022-08-19T06:05:12;65.22;;;33.30;;
15958;SDS011;8078;47.822;9.402;2022-08-19T06:07:38;54.90;;;32.42;;
15958;SDS011;8078;47.822;9.402;2022-08-19T06:10:05;56.30;;;32.42;;
15958;SDS011;8078;47.822;9.402;2022-08-19T06:12:33;56.75;;;33.50;;
15958;SDS011;8078;47.822;9.402;2022-08-19T06:15:00;55.58;;;32.55;;
15958;SDS011;8078;47.822;9.402;2022-08-19T06:17:44;61.38;;;33.22;;
15958;SDS011;8078;47.822;9.402;2022-08-19T06:20:11;58.67;;;32.38;;
15958;SDS011;8078;47.822;9.402;2022-08-19T06:22:38;60.75;;;33.60;;
15958;SDS011;8078;47.822;9.402;2022-08-19T06:25:05;56.33;;;32.67;;
15958;SDS011;8078;47.822;9.402;2022-08-19T06:27:31;60.97;;;32.20;;
15958;SDS011;8078;47.822;9.402;2022-08-19T06:29:58;61.10;;;32.78;;
15958;SDS011;8078;47.822;9.402;2022-08-19T06:32:23;57.15;;;33.33;;
15958;SDS011;8078;47.822;9.402;2022-08-19T06:34:49;62.78;;;33.58;;
15958;SDS011;8078;47.822;9.402;2022-08-19T06:37:15;64.22;;;32.85;;
15958;SDS011;8078;47.822;9.402;2022-08-19T06:39:41;59.42;;;33.03;;
15958;SDS011;8078;47.822;9.402;2022-08-19T06:42:09;58.60;;;32.83;;
15958;SDS011;8078;47.822;9.402;2022-08-19T06:44:37;55.25;;;32.25;;
15958;SDS011;8078;47.822;9.402;2022-08-19T06:47:04;63.88;;;34.17;;
15958;SDS011;8078;47.822;9.402;2022-08-19T06:49:32;60.00;;;33.22;;
15958;SDS011;8078;47.822;9.402;2022-08-19T06:51:58;58.85;;;33.22;;
15958;SDS011;8078;47.822;9.402;2022-08-19T06:54:25;61.88;;;33.00;;
15958;SDS011;8078;47.822;9.402;2022-08-19T06:56:53;61.90;;;33.83;;
15958;SDS011;8078;47.822;9.402;2022-08-19T06:59:20;63.85;;;34.50;;
15958;SDS011;8078;47.822;9.402;2022-08-19T07:01:48;62.45;;;34.72;;
15958;SDS011;8078;47.822;9.402;2022-08-19T07:04:16;64.50;;;35.53;;
15958;SDS011;8078;47.822;9.402;2022-08-19T07:06:47;64.57;;;36.97;;
15958;SDS011;8078;47.822;9.402;2022-08-19T07:09:14;68.97;;;37.15;;
15958;SDS011;8078;47.822;9.402;2022-08-19T07:11:45;72.32;;;37.97;;
15958;SDS011;8078;47.822;9.402;2022-08-19T07:14:14;69.93;;;37.38;;
15958;SDS011;8078;47.822;9.402;2022-08-19T07:16:42;68.90;;;37.85;;
15958;SDS011;8078;47.822;9.402;2022-08-19T07:19:10;72.75;;;38.75;;
15958;SDS011;8078;47.822;9.402;2022-08-19T07:21:37;86.53;;;39.33;;
15958;SDS011;8078;47.822;9.402;2022-08-19T07:24:02;77.22;;;39.60;;
15958;SDS011;8078;47.822;9.402;2022-08-19T07:26:32;74.75;;;38.05;;
15958;SDS011;8078;47.822;9.402;2022-08-19T07:28:58;82.32;;;41.22;;
15958;SDS011;8078;47.822;9.402;2022-08-19T07:31:27;71.88;;;38.42;;
15958;SDS011;8078;47.822;9.402;2022-08-19T07:33:53;73.80;;;38.85;;
15958;SDS011;8078;47.822;9.402;2022-08-19T07:36:24;84.30;;;41.78;;
15958;SDS011;8078;47.822;9.402;2022-08-19T07:38:57;80.63;;;42.38;;
15958;SDS011;8078;47.822;9.402;2022-08-19T07:41:25;87.72;;;42.38;;
15958;SDS011;8078;47.822;9.402;2022-08-19T07:43:53;84.40;;;41.47;;
15958;SDS011;8078;47.822;9.402;2022-08-19T07:46:20;79.07;;;39.78;;
15958;SDS011;8078;47.822;9.402;2022-08-19T07:48:47;82.53;;;41.42;;
15958;SDS011;8078;47.822;9.402;2022-08-19T07:51:15;86.15;;;41.25;;
15958;SDS011;8078;47.822;9.402;2022-08-19T07:53:43;91.13;;;42.00;;
15958;SDS011;8078;47.822;9.402;2022-08-19T07:56:10;86.90;;;42.33;;
15958;SDS011;8078;47.822;9.402;2022-08-19T07:58:38;89.22;;;43.97;;
15958;SDS011;8078;47.822;9.402;2022-08-19T08:01:07;93.70;;;44.33;;
15958;SDS011;8078;47.822;9.402;2022-08-19T08:03:35;97.07;;;44.40;;
15958;SDS011;8078;47.822;9.402;2022-08-19T08:06:19;91.80;;;42.65;;
15958;SDS011;8078;47.822;9.402;2022-08-19T08:09:04;90.60;;;43.30;;
15958;SDS011;8078;47.822;9.402;2022-08-19T08:11:47;95.65;;;45.25;;
15958;SDS011;8078;47.822;9.402;2022-08-19T08:14:19;95.30;;;42.90;;
15958;SDS011;8078;47.822;9.402;2022-08-19T08:16:49;85.57;;;41.90;;
15958;SDS011;8078;47.822;9.402;2022-08-19T08:19:16;89.47;;;43.63;;
15958;SDS011;8078;47.822;9.402;2022-08-19T08:21:44;89.10;;;43.22;;
15958;SDS011;8078;47.822;9.402;2022-08-19T08:24:10;85.72;;;44.35;;
15958;SDS011;8078;47.822;9.402;2022-08-19T08:26:36;83.13;;;43.72;;
15958;SDS011;8078;47.822;9.402;2022-08-19T08:29:02;81.97;;;42.53;;
15958;SDS011;8078;47.822;9.402;2022-08-19T08:31:27;90.70;;;41.67;;
15958;SDS011;8078;47.822;9.402;2022-08-19T08:33:53;77.32;;;40.25;;
15958;SDS011;8078;47.822;9.402;2022-08-19T08:36:19;82.60;;;42.10;;
15958;SDS011;8078;47.822;9.402;2022-08-19T08:38:45;76.50;;;41.05;;
15958;SDS011;8078;47.822;9.402;2022-08-19T08:41:21;80.40;;;42.58;;
15958;SDS011;8078;47.822;9.402;2022-08-19T08:43:49;79.10;;;42.45;;
15958;SDS011;8078;47.822;9.402;2022-08-19T08:46:19;79.18;;;41.60;;
15958;SDS011;8078;47.822;9.402;2022-08-19T08:48:56;72.60;;;42.30;;
15958;SDS011;8078;47.822;9.402;2022-08-19T08:51:43;73.57;;;40.42;;
15958;SDS011;8078;47.822;9.402;2022-08-19T08:54:14;73.28;;;39.70;;
15958;SDS011;8078;47.822;9.402;2022-08-19T08:56:43;77.22;;;40.65;;
15958;SDS011;8078;47.822;9.402;2022-08-19T08:59:20;73.95;;;40.97;;
15958;SDS011;8078;47.822;9.402;2022-08-19T09:01:53;73.50;;;40.47;;
15958;SDS011;8078;47.822;9.402;2022-08-19T09:04:18;75.18;;;41.72;;
15958;SDS011;8078;47.822;9.402;2022-08-19T09:09:48;75.60;;;40.45;;
15958;SDS011;8078;47.822;9.402;2022-08-19T09:12:25;65.88;;;38.20;;
15958;SDS011;8078;47.822;9.402;2022-08-19T09:15:09;64.82;;;36.97;;
15958;SDS011;8078;47.822;9.402;2022-08-19T09:17:37;68.75;;;37.55;;
15958;SDS011;8078;47.822;9.402;2022-08-19T09:20:13;61.45;;;35.83;;
15958;SDS011;8078;47.822;9.402;2022-08-19T09:22:43;51.33;;;31.27;;
15958;SDS011;8078;47.822;9.402;2022-08-19T09:25:11;57.20;;;34.17;;
15958;SDS011;8078;47.822;9.402;2022-08-19T09:27:39;56.13;;;34.22;;
15958;SDS011;8078;47.822;9.402;2022-08-19T09:30:06;63.33;;;36.95;;
15958;SDS011;8078;47.822;9.402;2022-08-19T09:32:33;63.40;;;34.53;;
15958;SDS011;8078;47.822;9.402;2022-08-19T09:34:59;59.10;;;35.28;;
15958;SDS011;8078;47.822;9.402;2022-08-19T09:37:25;52.72;;;30.42;;
15958;SDS011;8078;47.822;9.402;2022-08-19T09:39:52;49.92;;;29.90;;
15958;SDS011;8078;47.822;9.402;2022-08-19T09:42:18;53.97;;;32.80;;
15958;SDS011;8078;47.822;9.402;2022-08-19T09:44:44;52.75;;;34.10;;
15958;SDS011;8078;47.822;9.402;2022-08-19T09:47:11;58.08;;;34.45;;
15958;SDS011;8078;47.822;9.402;2022-08-19T09:49:38;53.72;;;32.30;;
15958;SDS011;8078;47.822;9.402;2022-08-19T09:52:05;55.70;;;35.20;;
15958;SDS011;8078;47.822;9.402;2022-08-19T09:54:33;54.72;;;33.60;;
15958;SDS011;8078;47.822;9.402;2022-08-19T09:56:58;50.75;;;30.52;;
15958;SDS011;8078;47.822;9.402;2022-08-19T09:59:27;45.58;;;29.02;;
15958;SDS011;8078;47.822;9.402;2022-08-19T10:01:53;51.08;;;31.88;;
15958;SDS011;8078;47.822;9.402;2022-08-19T10:04:19;48.47;;;30.45;;
15958;SDS011;8078;47.822;9.402;2022-08-19T10:06:46;48.28;;;29.48;;
15958;SDS011;8078;47.822;9.402;2022-08-19T10:09:13;60.20;;;32.00;;
15958;SDS011;8078;47.822;9.402;2022-08-19T10:11:41;47.35;;;29.02;;
15958;SDS011;8078;47.822;9.402;2022-08-19T10:14:08;53.15;;;30.10;;
15958;SDS011;8078;47.822;9.402;2022-08-19T10:16:35;51.45;;;31.00;;
15958;SDS011;8078;47.822;9.402;2022-08-19T10:19:02;46.97;;;28.13;;
15958;SDS011;8078;47.822;9.402;2022-08-19T10:21:30;45.47;;;27.60;;
15958;SDS011;8078;47.822;9.402;2022-08-19T10:23:58;49.58;;;29.63;;
15958;SDS011;8078;47.822;9.402;2022-08-19T10:26:26;42.05;;;27.45;;
15958;SDS011;8078;47.822;9.402;2022-08-19T10:28:53;40.20;;;24.95;;
15958;SDS011;8078;47.822;9.402;2022-08-19T10:31:21;37.53;;;25.10;;
15958;SDS011;8078;47.822;9.402;2022-08-19T10:33:50;36.90;;;25.48;;
15958;SDS011;8078;47.822;9.402;2022-08-19T10:36:20;40.65;;;26.83;;
15958;SDS011;8078;47.822;9.402;2022-08-19T10:38:49;39.28;;;24.35;;
15958;SDS011;8078;47.822;9.402;2022-08-19T10:41:17;39.78;;;24.80;;
15958;SDS011;8078;47.822;9.402;2022-08-19T10:43:45;41.15;;;26.13;;
15958;SDS011;8078;47.822;9.402;2022-08-19T10:46:12;38.75;;;25.58;;
15958;SDS011;8078;47.822;9.402;2022-08-19T10:48:40;38.17;;;24.65;;
15958;SDS011;8078;47.822;9.402;2022-08-19T10:51:06;36.15;;;23.95;;
15958;SDS011;8078;47.822;9.402;2022-08-19T10:53:51;33.22;;;22.08;;
15958;SDS011;8078;47.822;9.402;2022-08-19T10:56:17;32.58;;;23.10;;
15958;SDS011;8078;47.822;9.402;2022-08-19T10:59:02;32.63;;;22.98;;
15958;SDS011;8078;47.822;9.402;2022-08-19T11:01:30;36.40;;;23.77;;
15958;SDS011;8078;47.822;9.402;2022-08-19T11:03:58;31.38;;;21.08;;
15958;SDS011;8078;47.822;9.402;2022-08-19T11:06:24;29.95;;;20.58;;
15958;SDS011;8078;47.822;9.402;2022-08-19T11:08:53;29.13;;;21.15;;
15958;SDS011;8078;47.822;9.402;2022-08-19T11:11:19;29.67;;;20.58;;
15958;SDS011;8078;47.822;9.402;2022-08-19T11:13:48;30.02;;;21.08;;
15958;SDS011;8078;47.822;9.402;2022-08-19T11:16:19;26.42;;;18.63;;
15958;SDS011;8078;47.822;9.402;2022-08-19T11:18:50;29.17;;;20.00;;
15958;SDS011;8078;47.822;9.402;2022-08-19T11:21:20;28.60;;;19.40;;
15958;SDS011;8078;47.822;9.402;2022-08-19T11:23:57;24.63;;;17.98;;
15958;SDS011;8078;47.822;9.402;2022-08-19T11:26:25;25.00;;;17.50;;
15958;SDS011;8078;47.822;9.402;2022-08-19T11:28:52;25.95;;;17.38;;
15958;SDS011;8078;47.822;9.402;2022-08-19T11:31:20;24.75;;;17.30;;
15958;SDS011;8078;47.822;9.402;2022-08-19T11:33:48;23.45;;;16.83;;
15958;SDS011;8078;47.822;9.402;2022-08-19T11:36:19;21.95;;;15.75;;
15958;SDS011;8078;47.822;9.402;2022-08-19T11:38:46;20.77;;;14.15;;
15958;SDS011;8078;47.822;9.402;2022-08-19T11:41:15;20.33;;;14.88;;
15958;SDS011;8078;47.822;9.402;2022-08-19T11:43:43;19.92;;;14.18;;
15958;SDS011;8078;47.822;9.402;2022-08-19T11:46:10;20.63;;;14.73;;
15958;SDS011;8078;47.822;9.402;2022-08-19T11:48:38;20.10;;;14.57;;
15958;SDS011;8078;47.822;9.402;2022-08-19T11:51:04;18.92;;;14.38;;
15958;SDS011;8078;47.822;9.402;2022-08-19T11:53:32;21.25;;;15.25;;
15958;SDS011;8078;47.822;9.402;2022-08-19T11:55:58;23.30;;;15.27;;
15958;SDS011;8078;47.822;9.402;2022-08-19T11:58:23;20.23;;;15.43;;
15958;SDS011;8078;47.822;9.402;2022-08-19T12:00:49;20.45;;;15.30;;
15958;SDS011;8078;47.822;9.402;2022-08-19T12:03:16;21.25;;;14.45;;
15958;SDS011;8078;47.822;9.402;2022-08-19T12:05:43;17.38;;;12.90;;
15958;SDS011;8078;47.822;9.402;2022-08-19T12:08:09;19.13;;;13.27;;
15958;SDS011;8078;47.822;9.402;2022-08-19T12:10:35;19.17;;;14.35;;
15958;SDS011;8078;47.822;9.402;2022-08-19T12:13:01;18.35;;;13.95;;
15958;SDS011;8078;47.822;9.402;2022-08-19T12:15:27;18.63;;;14.27;;
15958;SDS011;8078;47.822;9.402;2022-08-19T12:17:54;18.45;;;13.10;;
15958;SDS011;8078;47.822;9.402;2022-08-19T12:20:21;17.27;;;13.15;;
15958;SDS011;8078;47.822;9.402;2022-08-19T12:22:48;16.75;;;12.88;;
15958;SDS011;8078;47.822;9.402;2022-08-19T12:25:14;18.00;;;13.98;;
15958;SDS011;8078;47.822;9.402;2022-08-19T12:27:39;18.45;;;15.30;;
15958;SDS011;8078;47.822;9.402;2022-08-19T12:30:06;19.60;;;15.77;;
15958;SDS011;8078;47.822;9.402;2022-08-19T12:32:33;19.95;;;15.68;;
15958;SDS011;8078;47.822;9.402;2022-08-19T12:34:59;20.00;;;15.77;;
15958;SDS011;8078;47.822;9.402;2022-08-19T12:37:25;21.33;;;17.63;;
15958;SDS011;8078;47.822;9.402;2022-08-19T12:39:51;23.00;;;18.33;;
15958;SDS011;8078;47.822;9.402;2022-08-19T12:42:17;25.42;;;20.20;;
15958;SDS011;8078;47.822;9.402;2022-08-19T12:44:43;26.25;;;19.23;;
15958;SDS011;8078;47.822;9.402;2022-08-19T12:47:11;23.23;;;16.95;;
15958;SDS011;8078;47.822;9.402;2022-08-19T12:49:39;21.85;;;17.27;;
15958;SDS011;8078;47.822;9.402;2022-08-19T12:52:05;23.63;;;18.88;;
15958;SDS011;8078;47.822;9.402;2022-08-19T12:54:32;24.67;;;17.63;;
15958;SDS011;8078;47.822;9.402;2022-08-19T12:56:58;21.98;;;16.50;;
15958;SDS011;8078;47.822;9.402;2022-08-19T12:59:24;22.58;;;16.45;;
15958;SDS011;8078;47.822;9.402;2022-08-19T13:01:51;21.60;;;16.02;;
15958;SDS011;8078;47.822;9.402;2022-08-19T13:04:16;22.20;;;16.27;;
15958;SDS011;8078;47.822;9.402;2022-08-19T13:06:43;19.17;;;15.85;;
15958;SDS011;8078;47.822;9.402;2022-08-19T13:09:09;24.98;;;17.10;;
15958;SDS011;8078;47.822;9.402;2022-08-19T13:11:35;22.88;;;17.02;;
15958;SDS011;8078;47.822;9.402;2022-08-19T13:14:02;24.52;;;17.42;;
15958;SDS011;8078;47.822;9.402;2022-08-19T13:16:28;22.23;;;17.80;;
15958;SDS011;8078;47.822;9.402;2022-08-19T13:18:55;23.20;;;18.33;;
15958;SDS011;8078;47.822;9.402;2022-08-19T13:21:22;25.23;;;18.67;;
15958;SDS011;8078;47.822;9.402;2022-08-19T13:23:51;21.50;;;16.92;;
15958;SDS011;8078;47.822;9.402;2022-08-19T13:26:17;24.25;;;18.25;;
15958;SDS011;8078;47.822;9.402;2022-08-19T13:28:43;26.40;;;19.13;;
15958;SDS011;8078;47.822;9.402;2022-08-19T13:31:31;23.00;;;17.63;;
15958;SDS011;8078;47.822;9.402;2022-08-19T13:34:17;26.70;;;19.45;;
15958;SDS011;8078;47.822;9.402;2022-08-19T13:36:49;25.35;;;19.10;;
15958;SDS011;8078;47.822;9.402;2022-08-19T13:39:17;25.27;;;18.58;;
15958;SDS011;8078;47.822;9.402;2022-08-19T13:41:44;27.83;;;20.40;;
15958;SDS011;8078;47.822;9.402;2022-08-19T13:44:15;24.08;;;18.38;;
15958;SDS011;8078;47.822;9.402;2022-08-19T13:46:43;24.98;;;19.83;;
15958;SDS011;8078;47.822;9.402;2022-08-19T13:49:10;24.65;;;19.20;;
15958;SDS011;8078;47.822;9.402;2022-08-19T13:51:38;25.63;;;19.55;;
15958;SDS011;8078;47.822;9.402;2022-08-19T13:54:05;25.23;;;19.38;;
15958;SDS011;8078;47.822;9.402;2022-08-19T13:56:31;28.60;;;18.95;;
15958;SDS011;8078;47.822;9.402;2022-08-19T13:58:56;24.17;;;19.20;;
15958;SDS011;8078;47.822;9.402;2022-08-19T14:01:22;24.60;;;19.52;;
15958;SDS011;8078;47.822;9.402;2022-08-19T14:03:49;24.98;;;19.35;;
15958;SDS011;8078;47.822;9.402;2022-08-19T14:06:15;26.25;;;20.00;;
15958;SDS011;8078;47.822;9.402;2022-08-19T14:08:41;26.33;;;20.45;;
15958;SDS011;8078;47.822;9.402;2022-08-19T14:11:08;28.15;;;20.35;;
15958;SDS011;8078;47.822;9.402;2022-08-19T14:13:34;27.98;;;21.33;;
15958;SDS011;8078;47.822;9.402;2022-08-19T14:16:00;27.92;;;21.67;;
15958;SDS011;8078;47.822;9.402;2022-08-19T14:18:31;29.65;;;22.90;;
15958;SDS011;8078;47.822;9.402;2022-08-19T14:20:57;29.20;;;22.50;;
15958;SDS011;8078;47.822;9.402;2022-08-19T14:23:22;30.52;;;23.08;;
15958;SDS011;8078;47.822;9.402;2022-08-19T14:25:48;30.48;;;22.80;;
15958;SDS011;8078;47.822;9.402;2022-08-19T14:28:13;31.85;;;23.27;;
15958;SDS011;8078;47.822;9.402;2022-08-19T14:30:39;34.95;;;25.02;;
15958;SDS011;8078;47.822;9.402;2022-08-19T14:33:05;33.42;;;24.73;;
15958;SDS011;8078;47.822;9.402;2022-08-19T14:35:32;38.30;;;27.63;;
15958;SDS011;8078;47.822;9.402;2022-08-19T14:37:59;41.85;;;29.10;;
15958;SDS011;8078;47.822;9.402;2022-08-19T14:40:28;43.58;;;29.75;;
15958;SDS011;8078;47.822;9.402;2022-08-19T14:42:56;46.10;;;31.17;;
15958;SDS011;8078;47.822;9.402;2022-08-19T14:45:25;47.03;;;32.83;;